Erowati — 3FBC9 — position and weather

sailwx.info

Track history (hours):
 
Tides and Currents Weather Stations Pressure Air Temp Water Temp Dewpoint Dewpoint Depression Visibility Wind Speed Wind Dir Waves Ship Positions

Erowati

Last reported at 2018-Jun-15 08:34 UTC. Time now 2018-Jun-21 16:28 UTC.
Position N 33°37' E 135°08'.

Length 190 m; draft 6.4 m.

Type: Cargo ship. MMSI: 353320000.

Date/timePositionNaut miles runAvg speedWind from/ knotsBaromVisibWave heightAir tempDewpointWater temp
2018-Jun-15 08:34N 33°37' E 135°08'114.1
2018-Jun-15 08:30N 33°37' E 135°07'713.8
2018-Jun-15 08:00N 33°43' E 135°03'713.6
2018-Jun-15 07:31N 33°48' E 134°58'713.5
2018-Jun-15 07:01N 33°55' E 134°56'713.6
2018-Jun-15 06:31N 34°02' E 134°57'714.5
2018-Jun-15 06:01N 34°09' E 134°58'714.5
2018-Jun-15 05:30N 34°16' E 134°58'816.0
2018-Jun-15 05:00N 34°24' E 135°01'815.9
2018-Jun-15 04:31N 34°31' E 135°06'4 8.0
2018-Jun-15 04:00N 34°35' E 135°06'815.3
2018-Jun-15 03:28N 34°36' E 134°56'715.9
2018-Jun-15 03:00N 34°33' E 134°48'714.8
2018-Jun-15 02:30N 34°30' E 134°40'715.0
2018-Jun-15 02:00N 34°27' E 134°31'815.2
2018-Jun-15 01:30N 34°24' E 134°23'714.6
2018-Jun-15 01:00N 34°24' E 134°14'913.6
2018-Jun-15 00:21N 34°26' E 134°03'  
Track history (hours):
 
Tides and Currents Weather Stations Pressure Air Temp Water Temp Dewpoint Dewpoint Depression Visibility Wind Speed Wind Dir Waves Ship Positions

Erowati

Last reported at 2018-Jun-15 08:34 UTC. Time now 2018-Jun-21 16:28 UTC.
Position N 33°37' E 135°08'.

Length 190 m; draft 6.4 m.

Type: Cargo ship. MMSI: 353320000.

Date/timePositionNaut miles runAvg speedWind from/ knotsBaromVisibWave heightAir tempDewpointWater temp
2018-Jun-15 08:34N 33°37' E 135°08'114.1
2018-Jun-15 08:30N 33°37' E 135°07'713.8
2018-Jun-15 08:00N 33°43' E 135°03'713.6
2018-Jun-15 07:31N 33°48' E 134°58'713.5
2018-Jun-15 07:01N 33°55' E 134°56'713.6
2018-Jun-15 06:31N 34°02' E 134°57'714.5
2018-Jun-15 06:01N 34°09' E 134°58'714.5
2018-Jun-15 05:30N 34°16' E 134°58'816.0
2018-Jun-15 05:00N 34°24' E 135°01'815.9
2018-Jun-15 04:31N 34°31' E 135°06'4 8.0
2018-Jun-15 04:00N 34°35' E 135°06'815.3
2018-Jun-15 03:28N 34°36' E 134°56'715.9
2018-Jun-15 03:00N 34°33' E 134°48'714.8
2018-Jun-15 02:30N 34°30' E 134°40'715.0
2018-Jun-15 02:00N 34°27' E 134°31'815.2
2018-Jun-15 01:30N 34°24' E 134°23'714.6
2018-Jun-15 01:00N 34°24' E 134°14'913.6
2018-Jun-15 00:21N 34°26' E 134°03'  

Dump ship's entire track history